PWSweather.com
Personal Weather Stations
Station Observations
W7JKG
Phoenix, AZ 85032-2083

Phoenix, AZ 85032-2083

Lat: 33.645544, Lon: -112.007099

Elevation: 1474

Station Type: Davis Vantage Pro2 Wireless

http://tiggrweather.net/

High Low Average
Temperature 75.2°F24.0°F 45.6°F7.6°F 59.8°F15.4°F
Dew Point 31.2°F-0.4°F 18.8°F-7.3°F 26.5°F-3.1°F
Winds 6.9 mph SSE11.1 mph SSE Calm Calm 0.9 mph 1.4 mph
Wind Gusts 8.1 mph13.0 mph -- 1.8 mph2.9 mph
Humidity 52% 12% 32%
Pressure 30.03 in1016.90 in 29.83 in1010.20 in -
Precipitation 0.00 in0.00 in - -
Hour Temp Dew Point Humidity Winds Wind Gusts Pressure Precip Precip Rate Daily Precip Total
12:00 AM 52.2°F11.2°C 30.4°F-0.9°C 43% Calm Calm -- 30.03 in1016.9 mb - 0.00 in0.0 mm 0.00 in0.0 mm
01:00 AM 51.2°F10.7°C 30.0°F-1.1°C 44% Calm Calm -- 30.03 in1016.9 mb - 0.00 in0.0 mm 0.00 in0.0 mm
02:00 AM 50.5°F10.3°C 29.9°F-1.2°C 45% Calm Calm -- 30.01 in1016.3 mb - 0.00 in0.0 mm 0.00 in0.0 mm
03:00 AM 49.8°F9.9°C 29.3°F-1.5°C 45% Calm Calm -- 30.01 in1016.3 mb - 0.00 in0.0 mm 0.00 in0.0 mm
04:00 AM 50.0°F10.0°C 27.8°F-2.3°C 42% Calm Calm -- 30.01 in1016.3 mb - 0.00 in0.0 mm 0.00 in0.0 mm
05:00 AM 48.9°F9.4°C 28.5°F-1.9°C 45% Calm Calm -- 30.00 in1015.9 mb - 0.00 in0.0 mm 0.00 in0.0 mm
06:00 AM 47.2°F8.4°C 30.0°F-1.1°C 51% Calm Calm 1.2 mph1.9 kmh 30.00 in1015.9 mb - 0.00 in0.0 mm 0.00 in0.0 mm
07:00 AM 46.1°F7.8°C 29.5°F-1.4°C 52% Calm Calm -- 30.01 in1016.3 mb - 0.00 in0.0 mm 0.00 in0.0 mm
08:00 AM 45.6°F7.6°C 29.0°F-1.7°C 52% Calm Calm -- 30.02 in1016.6 mb - 0.00 in0.0 mm 0.00 in0.0 mm
09:00 AM 53.1°F11.7°C 31.2°F-0.4°C 43% Calm Calm -- 30.03 in1016.9 mb - 0.00 in0.0 mm 0.00 in0.0 mm
10:00 AM 61.5°F16.4°C 28.1°F-2.2°C 28% Calm Calm -- 30.03 in1016.9 mb - 0.00 in0.0 mm 0.00 in0.0 mm
11:00 AM 69.1°F20.6°C 25.0°F-3.9°C 19% 1.2 mph W1.9 kmh W 3.5 mph5.6 kmh 30.02 in1016.6 mb - 0.00 in0.0 mm 0.00 in0.0 mm
12:00 PM 70.2°F21.2°C 26.0°F-3.3°C 19% 4.6 mph SE7.4 kmh SE 6.9 mph11.1 kmh 29.99 in1015.6 mb - 0.00 in0.0 mm 0.00 in0.0 mm
01:00 PM 73.2°F22.9°C 19.4°F-7.0°C 13% 6.9 mph SSE11.1 kmh SSE 8.1 mph13.0 kmh 29.94 in1013.9 mb - 0.00 in0.0 mm 0.00 in0.0 mm
02:00 PM 74.1°F23.4°C 20.1°F-6.6°C 13% 3.5 mph SE5.6 kmh SE 4.6 mph7.4 kmh 29.91 in1012.9 mb - 0.00 in0.0 mm 0.00 in0.0 mm
03:00 PM 74.8°F23.8°C 20.6°F-6.3°C 13% 2.3 mph SE3.7 kmh SE 6.9 mph11.1 kmh 29.89 in1012.2 mb - 0.00 in0.0 mm 0.00 in0.0 mm
04:00 PM 75.2°F24.0°C 19.0°F-7.2°C 12% 2.3 mph SE3.7 kmh SE 4.6 mph7.4 kmh 29.87 in1011.5 mb - 0.00 in0.0 mm 0.00 in0.0 mm
05:00 PM 74.9°F23.8°C 18.8°F-7.3°C 12% 1.2 mph ESE1.9 kmh ESE 4.6 mph7.4 kmh 29.86 in1011.2 mb - 0.00 in0.0 mm 0.00 in0.0 mm
06:00 PM 72.5°F22.5°C 23.7°F-4.6°C 16% Calm Calm -- 29.84 in1010.5 mb - 0.00 in0.0 mm 0.00 in0.0 mm
07:00 PM 66.0°F18.9°C 27.1°F-2.7°C 23% Calm Calm -- 29.84 in1010.5 mb - 0.00 in0.0 mm 0.00 in0.0 mm
08:00 PM 61.9°F16.6°C 29.2°F-1.6°C 29% Calm Calm -- 29.84 in1010.5 mb - 0.00 in0.0 mm 0.00 in0.0 mm
09:00 PM 58.3°F14.6°C 28.5°F-1.9°C 32% Calm Calm 1.2 mph1.9 kmh 29.84 in1010.5 mb - 0.00 in0.0 mm 0.00 in0.0 mm
10:00 PM 55.8°F13.2°C 27.8°F-2.3°C 34% Calm Calm -- 29.83 in1010.2 mb - 0.00 in0.0 mm 0.00 in0.0 mm
11:00 PM 53.8°F12.1°C 28.1°F-2.2°C 37% Calm Calm 1.2 mph1.9 kmh 29.83 in1010.2 mb - 0.00 in0.0 mm 0.00 in0.0 mm